Time;durP1;ratioP1;P1;durP2;ratioP2;P2;SDS_P1;SDS_P2;PMS_P1;PMS_P2;Temp;Humidity;BMP_temperature;BMP_pressure;BME280_temperature;BME280_humidity;BME280_pressure;Samples;Min_cycle;Max_cycle;Signal;HPM_P1;HPM_P2
2023/01/25 00:01:06;;;;;;;11.80;10.98;;;;;;;;;;4996221;28;20041;-55
2023/01/25 00:03:31;;;;;;;10.15;9.35;;;;;;;;;;4992713;28;20030;-55
2023/01/25 00:06:00;;;;;;;9.98;9.27;;;;;;;;;;4991535;28;20041;-54
2023/01/25 00:08:25;;;;;;;10.85;10.15;;;;;;;;;;4994889;28;20156;-53
2023/01/25 00:10:51;;;;;;;11.10;10.30;;;;;;;;;;4996215;28;20559;-52
2023/01/25 00:13:16;;;;;;;10.38;9.70;;;;;;;;;;4996960;28;20038;-56
2023/01/25 00:15:41;;;;;;;11.93;11.00;;;;;;;;;;4993630;28;20033;-54
2023/01/25 00:18:07;;;;;;;10.85;10.15;;;;;;;;;;4994264;28;20029;-56
2023/01/25 00:20:32;;;;;;;9.82;9.23;;;;;;;;;;4993391;28;20326;-56
2023/01/25 00:22:57;;;;;;;10.68;9.88;;;;;;;;;;4993907;28;20034;-56
2023/01/25 00:25:23;;;;;;;10.48;9.77;;;;;;;;;;4990214;28;20042;-56
2023/01/25 00:27:48;;;;;;;10.98;10.20;;;;;;;;;;4991487;28;20455;-56
2023/01/25 00:30:14;;;;;;;11.75;10.85;;;;;;;;;;4994527;28;20112;-56
2023/01/25 00:33:05;;;;;;;12.23;11.43;;;;;;;;;;4992800;28;20483;-56
2023/01/25 00:35:33;;;;;;;10.68;9.88;;;;;;;;;;4994118;28;20033;-56
2023/01/25 00:38:01;;;;;;;9.77;9.15;;;;;;;;;;4996391;28;20046;-55
2023/01/25 00:40:27;;;;;;;10.82;10.02;;;;;;;;;;4992937;28;20108;-56
2023/01/25 00:42:52;;;;;;;10.95;10.25;;;;;;;;;;4993938;28;20117;-56
2023/01/25 00:45:17;;;;;;;11.93;11.02;;;;;;;;;;4992014;28;20578;-55
2023/01/25 00:47:43;;;;;;;12.10;11.30;;;;;;;;;;4994097;28;20511;-56
2023/01/25 00:50:09;;;;;;;10.77;10.10;;;;;;;;;;4992719;28;20367;-54
2023/01/25 00:52:34;;;;;;;10.38;9.68;;;;;;;;;;4994679;28;20034;-55
2023/01/25 00:55:00;;;;;;;11.02;10.32;;;;;;;;;;4995132;28;20452;-54
2023/01/25 00:57:25;;;;;;;10.13;9.43;;;;;;;;;;4993894;28;20034;-54
2023/01/25 00:59:51;;;;;;;9.85;9.25;;;;;;;;;;4994026;28;20030;-56
2023/01/25 01:02:16;;;;;;;9.82;9.23;;;;;;;;;;4995794;28;20065;-55
2023/01/25 01:04:41;;;;;;;11.50;10.70;;;;;;;;;;4996330;28;20066;-53
2023/01/25 01:07:07;;;;;;;10.55;9.85;;;;;;;;;;4993679;28;20030;-54
2023/01/25 01:09:32;;;;;;;11.27;10.57;;;;;;;;;;4995129;28;20030;-56
2023/01/25 01:11:57;;;;;;;9.85;9.25;;;;;;;;;;4997105;28;20427;-56
2023/01/25 01:14:23;;;;;;;10.50;9.80;;;;;;;;;;4996524;28;20042;-55
2023/01/25 01:16:48;;;;;;;10.50;9.80;;;;;;;;;;4997937;28;20042;-56
2023/01/25 01:19:14;;;;;;;11.88;11.15;;;;;;;;;;4997862;28;20621;-55
2023/01/25 01:21:39;;;;;;;10.30;9.68;;;;;;;;;;4998186;28;20057;-55
2023/01/25 01:24:05;;;;;;;11.13;10.43;;;;;;;;;;4996569;28;20049;-56
2023/01/25 01:26:30;;;;;;;11.30;10.50;;;;;;;;;;4997453;28;20476;-56
2023/01/25 01:28:57;;;;;;;10.95;10.18;;;;;;;;;;4999724;28;20069;-56
2023/01/25 01:31:23;;;;;;;11.18;10.40;;;;;;;;;;4997202;28;20495;-53
2023/01/25 01:33:50;;;;;;;10.43;9.77;;;;;;;;;;4997629;28;20049;-54
2023/01/25 01:36:17;;;;;;;10.57;9.93;;;;;;;;;;4999584;28;20092;-56
2023/01/25 01:38:43;;;;;;;10.68;9.98;;;;;;;;;;4998773;28;20038;-56
2023/01/25 01:41:09;;;;;;;11.30;10.55;;;;;;;;;;4996591;28;20113;-55
2023/01/25 01:43:35;;;;;;;10.82;10.13;;;;;;;;;;4997377;28;20086;-55
2023/01/25 01:46:08;;;;;;;10.82;10.13;;;;;;;;;;4998293;28;20113;-54
2023/01/25 01:48:38;;;;;;;10.50;9.85;;;;;;;;;;4998507;28;20518;-52
2023/01/25 01:51:44;;;;;;;10.55;9.88;;;;;;;;;;4997029;28;20042;-55
2023/01/25 01:54:19;;;;;;;10.38;9.68;;;;;;;;;;4986620;28;20049;-56
2023/01/25 01:57:11;;;;;;;10.32;9.65;;;;;;;;;;4996684;28;20066;-55
2023/01/25 01:59:39;;;;;;;9.85;9.25;;;;;;;;;;4997257;28;20034;-55
2023/01/25 02:02:06;;;;;;;10.05;9.38;;;;;;;;;;4978653;28;20056;-55
2023/01/25 02:04:32;;;;;;;10.48;9.80;;;;;;;;;;4993533;28;20609;-56
2023/01/25 02:07:15;;;;;;;10.93;10.23;;;;;;;;;;4993078;28;20030;-55
2023/01/25 02:09:42;;;;;;;11.75;10.63;;;;;;;;;;4994724;28;20037;-58
2023/01/25 02:12:09;;;;;;;11.02;10.32;;;;;;;;;;4995452;28;20040;-53
2023/01/25 02:14:38;;;;;;;11.95;11.10;;;;;;;;;;4997776;28;20030;-55
2023/01/25 02:17:04;;;;;;;10.38;9.77;;;;;;;;;;4996861;28;20054;-54
2023/01/25 02:19:38;;;;;;;11.13;10.35;;;;;;;;;;4993943;28;20352;-53
2023/01/25 02:22:09;;;;;;;10.43;9.82;;;;;;;;;;4995585;28;20040;-56
2023/01/25 02:24:37;;;;;;;11.52;10.75;;;;;;;;;;4995304;28;20038;-56
2023/01/25 02:27:03;;;;;;;10.93;10.13;;;;;;;;;;4993058;28;20093;-55
2023/01/25 02:29:29;;;;;;;10.82;10.18;;;;;;;;;;4995722;28;20829;-55
2023/01/25 02:32:04;;;;;;;12.57;11.73;;;;;;;;;;4996628;28;20030;-55
2023/01/25 02:34:30;;;;;;;11.40;10.70;;;;;;;;;;4994171;28;20487;-55
2023/01/25 02:36:55;;;;;;;11.63;10.82;;;;;;;;;;4996297;28;20038;-55
2023/01/25 02:39:24;;;;;;;10.45;9.75;;;;;;;;;;4994785;28;20045;-54
2023/01/25 02:41:49;;;;;;;11.20;10.50;;;;;;;;;;4995363;28;20431;-56
2023/01/25 02:44:25;;;;;;;10.25;9.60;;;;;;;;;;4997503;28;20030;-55
2023/01/25 02:46:51;;;;;;;10.52;9.82;;;;;;;;;;4996890;28;20037;-55
2023/01/25 02:49:17;;;;;;;10.40;9.77;;;;;;;;;;4995041;28;20068;-55
2023/01/25 02:51:48;;;;;;;11.85;11.10;;;;;;;;;;4997543;28;20374;-55
2023/01/25 02:54:15;;;;;;;;;;;;;;;;;;4995623;28;20485;-54
2023/01/25 02:56:40;;;;;;;10.95;10.15;;;;;;;;;;4995147;28;20008;-54
2023/01/25 02:59:07;;;;;;;10.55;9.85;;;;;;;;;;4997352;28;20124;-54
2023/01/25 03:01:33;;;;;;;11.10;10.40;;;;;;;;;;4997261;28;20121;-54
2023/01/25 03:03:59;;;;;;;10.60;9.90;;;;;;;;;;4996629;28;20062;-55
2023/01/25 03:06:24;;;;;;;11.52;10.80;;;;;;;;;;4993926;28;20081;-54
2023/01/25 03:08:50;;;;;;;11.70;10.82;;;;;;;;;;4997501;28;20033;-55
2023/01/25 03:11:15;;;;;;;10.60;9.90;;;;;;;;;;4994539;28;20076;-51
2023/01/25 03:13:40;;;;;;;10.82;10.13;;;;;;;;;;4995836;28;20057;-54
2023/01/25 03:16:09;;;;;;;10.70;10.07;;;;;;;;;;4998454;28;20176;-55
2023/01/25 03:18:35;;;;;;;10.77;10.07;;;;;;;;;;4995255;28;20057;-55
2023/01/25 03:21:09;;;;;;;10.50;9.80;;;;;;;;;;4996510;28;20155;-54
2023/01/25 03:23:35;;;;;;;10.40;9.70;;;;;;;;;;4994447;28;20157;-54
2023/01/25 03:26:05;;;;;;;10.90;10.20;;;;;;;;;;4997468;28;20116;-56
2023/01/25 03:28:31;;;;;;;11.02;10.32;;;;;;;;;;4994683;28;20042;-54
2023/01/25 03:30:56;;;;;;;11.23;10.52;;;;;;;;;;4994399;28;20035;-54
2023/01/25 03:33:21;;;;;;;10.63;9.90;;;;;;;;;;4993829;28;20602;-52
2023/01/25 03:35:51;;;;;;;11.85;11.05;;;;;;;;;;4993339;28;20038;-53
2023/01/25 03:38:18;;;;;;;11.75;10.95;;;;;;;;;;4997842;28;20140;-57
2023/01/25 03:40:43;;;;;;;10.60;9.90;;;;;;;;;;4995535;28;20026;-55
2023/01/25 03:43:09;;;;;;;9.90;9.30;;;;;;;;;;4995749;28;20045;-55
2023/01/25 03:45:34;;;;;;;10.85;10.15;;;;;;;;;;4994358;28;20037;-55
2023/01/25 03:47:59;;;;;;;11.60;10.90;;;;;;;;;;4994183;28;20030;-56
2023/01/25 03:50:25;;;;;;;11.30;10.57;;;;;;;;;;4995950;28;20064;-55
2023/01/25 03:52:57;;;;;;;11.40;10.60;;;;;;;;;;4997026;28;20033;-55
2023/01/25 03:55:23;;;;;;;11.70;10.90;;;;;;;;;;4993859;28;20457;-55
2023/01/25 03:57:48;;;;;;;11.25;10.35;;;;;;;;;;4997761;28;20068;-55
2023/01/25 04:00:14;;;;;;;10.70;10.00;;;;;;;;;;4996896;28;20030;-56
2023/01/25 04:02:39;;;;;;;11.85;10.98;;;;;;;;;;4995827;28;20049;-55
2023/01/25 04:05:05;;;;;;;11.60;10.90;;;;;;;;;;4995033;28;20037;-56
2023/01/25 04:07:32;;;;;;;10.98;10.27;;;;;;;;;;5009313;28;20038;-56
2023/01/25 04:09:58;;;;;;;11.50;10.75;;;;;;;;;;4998517;28;20261;-56
2023/01/25 04:12:23;;;;;;;10.85;10.05;;;;;;;;;;5000130;28;20100;-55
2023/01/25 04:14:48;;;;;;;12.18;11.40;;;;;;;;;;4995424;28;20038;-55
2023/01/25 04:17:14;;;;;;;10.98;10.25;;;;;;;;;;4999024;28;20507;-56
2023/01/25 04:19:39;;;;;;;11.27;10.48;;;;;;;;;;4994897;28;20038;-55
2023/01/25 04:22:04;;;;;;;11.93;11.13;;;;;;;;;;4995000;28;20033;-56
2023/01/25 04:24:30;;;;;;;10.57;9.98;;;;;;;;;;4995833;28;20052;-55
2023/01/25 04:26:55;;;;;;;12.02;11.23;;;;;;;;;;4995299;28;20072;-55
2023/01/25 04:29:20;;;;;;;13.45;12.57;;;;;;;;;;4994796;28;20108;-55
2023/01/25 04:31:46;;;;;;;10.85;10.15;;;;;;;;;;4995264;28;20558;-56
2023/01/25 04:34:11;;;;;;;11.27;10.57;;;;;;;;;;4993887;28;20121;-56
2023/01/25 04:36:36;;;;;;;12.90;12.00;;;;;;;;;;4996031;28;20474;-56
2023/01/25 04:39:02;;;;;;;12.05;11.25;;;;;;;;;;4992067;28;20030;-56
2023/01/25 04:41:28;;;;;;;11.32;10.63;;;;;;;;;;4991099;28;20476;-56
2023/01/25 04:43:53;;;;;;;11.50;10.80;;;;;;;;;;4994719;28;20374;-56
2023/01/25 04:46:19;;;;;;;11.07;10.38;;;;;;;;;;4997541;28;20041;-55
2023/01/25 04:48:44;;;;;;;11.75;10.98;;;;;;;;;;4997183;28;20034;-56
2023/01/25 04:51:10;;;;;;;10.85;10.15;;;;;;;;;;5005469;28;20025;-56
2023/01/25 04:53:35;;;;;;;11.85;10.70;;;;;;;;;;4998354;28;20037;-55
2023/01/25 04:56:01;;;;;;;11.15;10.45;;;;;;;;;;4995493;28;20117;-55
2023/01/25 04:58:26;;;;;;;11.48;10.75;;;;;;;;;;4997103;28;20130;-56
2023/01/25 05:00:52;;;;;;;11.77;11.02;;;;;;;;;;4987642;28;20121;-54
2023/01/25 05:03:17;;;;;;;11.65;10.85;;;;;;;;;;4999025;28;20034;-56
2023/01/25 05:05:46;;;;;;;11.07;10.38;;;;;;;;;;4997130;28;20585;-56
2023/01/25 05:08:12;;;;;;;11.60;10.80;;;;;;;;;;4998144;28;20048;-55
2023/01/25 05:10:37;;;;;;;10.93;10.23;;;;;;;;;;4996731;28;20472;-56
2023/01/25 05:13:02;;;;;;;11.23;10.52;;;;;;;;;;4996848;28;20034;-55
2023/01/25 05:15:28;;;;;;;12.32;11.45;;;;;;;;;;4995789;28;20038;-56
2023/01/25 05:17:53;;;;;;;11.68;10.88;;;;;;;;;;4995259;28;20479;-56
2023/01/25 05:20:18;;;;;;;12.00;11.23;;;;;;;;;;4998534;28;20478;-56
2023/01/25 05:22:44;;;;;;;11.65;10.93;;;;;;;;;;5003512;28;20468;-56
2023/01/25 05:26:59;;;;;;;12.13;11.40;;;;;;;;;;4997543;28;20034;-55
2023/01/25 05:27:54;;;;;;;11.50;10.80;;;;;;;;;;4997527;28;20693;-57
2023/01/25 05:30:20;;;;;;;11.68;10.88;;;;;;;;;;4996608;28;20140;-56
2023/01/25 05:32:47;;;;;;;10.63;9.93;;;;;;;;;;4996258;28;20033;-55
2023/01/25 05:35:12;;;;;;;11.13;10.43;;;;;;;;;;4999645;28;20600;-56
2023/01/25 05:37:38;;;;;;;12.07;11.18;;;;;;;;;;4997533;28;20092;-53
2023/01/25 05:40:03;;;;;;;11.50;10.80;;;;;;;;;;4997738;28;20348;-53
2023/01/25 05:42:29;;;;;;;11.32;10.63;;;;;;;;;;4997076;28;20609;-55
2023/01/25 05:44:54;;;;;;;11.25;10.52;;;;;;;;;;4998345;28;20065;-56
2023/01/25 05:47:20;;;;;;;12.38;11.43;;;;;;;;;;4997940;28;20039;-56
2023/01/25 05:49:45;;;;;;;11.57;10.85;;;;;;;;;;4997963;28;20510;-55
2023/01/25 05:52:14;;;;;;;10.52;9.82;;;;;;;;;;4996982;28;20071;-56
2023/01/25 05:54:40;;;;;;;11.57;10.68;;;;;;;;;;5003980;28;20431;-56
2023/01/25 05:57:05;;;;;;;11.73;11.00;;;;;;;;;;4993165;28;20034;-56
2023/01/25 05:59:31;;;;;;;11.05;10.35;;;;;;;;;;4993641;28;20030;-56
2023/01/25 06:01:56;;;;;;;11.25;10.45;;;;;;;;;;4995950;28;20038;-57
2023/01/25 06:04:22;;;;;;;11.63;10.93;;;;;;;;;;4996721;28;20123;-56
2023/01/25 06:06:47;;;;;;;10.55;9.85;;;;;;;;;;4997718;28;20030;-53
2023/01/25 06:09:13;;;;;;;11.90;11.10;;;;;;;;;;4999458;28;20125;-54
2023/01/25 06:11:41;;;;;;;11.57;10.77;;;;;;;;;;4997797;28;20121;-57
2023/01/25 06:14:07;;;;;;;12.35;11.48;;;;;;;;;;4997480;28;20037;-69
2023/01/25 06:16:32;;;;;;;11.55;10.75;;;;;;;;;;4996796;28;20056;-59
2023/01/25 06:18:57;;;;;;;12.25;11.25;;;;;;;;;;4997786;28;20402;-53
2023/01/25 06:21:23;;;;;;;12.95;12.15;;;;;;;;;;4997431;28;20034;-54
2023/01/25 06:23:48;;;;;;;11.77;11.07;;;;;;;;;;4995159;28;20092;-55
2023/01/25 06:26:14;;;;;;;12.13;11.32;;;;;;;;;;4995281;28;20113;-54
2023/01/25 06:28:40;;;;;;;12.68;11.75;;;;;;;;;;4997816;28;20400;-53
2023/01/25 06:31:10;;;;;;;11.25;10.55;;;;;;;;;;4997384;28;20728;-51
2023/01/25 06:33:36;;;;;;;12.25;11.45;;;;;;;;;;4997679;28;20100;-52
2023/01/25 06:36:12;;;;;;;10.95;10.27;;;;;;;;;;4997779;28;20034;-54
2023/01/25 06:38:38;;;;;;;11.10;10.40;;;;;;;;;;4997899;28;20085;-51
2023/01/25 06:41:05;;;;;;;11.43;10.73;;;;;;;;;;4997894;28;20088;-52
2023/01/25 06:43:31;;;;;;;11.85;11.13;;;;;;;;;;4997429;28;20479;-55
2023/01/25 06:46:01;;;;;;;15.10;13.98;;;;;;;;;;4996254;28;20112;-54
2023/01/25 06:48:28;;;;;;;12.45;11.65;;;;;;;;;;4997952;28;20149;-53
2023/01/25 06:51:09;;;;;;;11.77;10.88;;;;;;;;;;4997986;28;20557;-50
2023/01/25 06:53:38;;;;;;;11.55;10.65;;;;;;;;;;4996684;28;20231;-51
2023/01/25 06:56:16;;;;;;;11.10;10.40;;;;;;;;;;4995545;28;20031;-51
2023/01/25 06:58:42;;;;;;;13.13;12.00;;;;;;;;;;4997701;28;20127;-51
2023/01/25 07:01:25;;;;;;;12.55;11.48;;;;;;;;;;4994295;28;20062;-50
2023/01/25 07:03:53;;;;;;;11.50;10.80;;;;;;;;;;4996705;28;20042;-49
2023/01/25 07:06:20;;;;;;;11.90;10.95;;;;;;;;;;4996526;28;20042;-51
2023/01/25 07:08:46;;;;;;;12.65;11.85;;;;;;;;;;4998992;28;20025;-53
2023/01/25 07:11:13;;;;;;;12.85;11.95;;;;;;;;;;4995209;28;20038;-52
2023/01/25 07:13:44;;;;;;;11.30;10.60;;;;;;;;;;4993554;28;20045;-52
2023/01/25 07:16:13;;;;;;;;;;;;;;;;;;4997466;28;20128;-52
2023/01/25 07:18:39;;;;;;;12.63;11.82;;;;;;;;;;4997485;28;19913;-52
2023/01/25 07:21:07;;;;;;;10.95;10.25;;;;;;;;;;5000297;28;20091;-53
2023/01/25 07:23:33;;;;;;;12.68;11.85;;;;;;;;;;4993917;28;20034;-51
2023/01/25 07:25:59;;;;;;;10.57;9.88;;;;;;;;;;4996931;28;20075;-54
2023/01/25 07:28:25;;;;;;;12.27;11.38;;;;;;;;;;4997774;28;20107;-55
2023/01/25 07:30:50;;;;;;;13.10;12.23;;;;;;;;;;4997312;28;20527;-53
2023/01/25 07:33:16;;;;;;;12.77;11.55;;;;;;;;;;4994799;28;20397;-52
2023/01/25 07:35:41;;;;;;;11.38;10.63;;;;;;;;;;4995592;28;20080;-55
2023/01/25 07:38:07;;;;;;;12.63;11.63;;;;;;;;;;4995310;28;20072;-55
2023/01/25 07:40:33;;;;;;;11.65;10.95;;;;;;;;;;4994746;28;20026;-53
2023/01/25 07:42:58;;;;;;;11.77;10.95;;;;;;;;;;4993871;28;20292;-54
2023/01/25 07:45:29;;;;;;;11.18;10.48;;;;;;;;;;4994683;28;20025;-55
2023/01/25 07:47:56;;;;;;;11.55;10.75;;;;;;;;;;4996917;28;20590;-54
2023/01/25 07:50:21;;;;;;;12.20;11.20;;;;;;;;;;4994290;28;20046;-54
2023/01/25 07:52:46;;;;;;;12.98;12.07;;;;;;;;;;4994213;28;20026;-52
2023/01/25 07:55:12;;;;;;;10.93;10.18;;;;;;;;;;4992068;28;20614;-52
2023/01/25 07:57:37;;;;;;;11.20;10.50;;;;;;;;;;4992641;28;20099;-51
2023/01/25 08:00:05;;;;;;;11.55;10.75;;;;;;;;;;4996608;28;20026;-53
2023/01/25 08:02:30;;;;;;;11.13;10.32;;;;;;;;;;4993756;28;20096;-51
2023/01/25 08:04:56;;;;;;;12.15;11.35;;;;;;;;;;4995408;28;20084;-53
2023/01/25 08:07:22;;;;;;;11.85;11.05;;;;;;;;;;4992143;28;20739;-52
2023/01/25 08:09:47;;;;;;;11.05;10.35;;;;;;;;;;4997144;28;20084;-53
2023/01/25 08:12:13;;;;;;;13.18;12.38;;;;;;;;;;4994213;28;20037;-51
2023/01/25 08:14:39;;;;;;;12.35;11.20;;;;;;;;;;4995892;28;20041;-51
2023/01/25 08:17:04;;;;;;;12.07;11.07;;;;;;;;;;4990781;28;20062;-51
2023/01/25 08:19:29;;;;;;;11.57;10.57;;;;;;;;;;4997811;28;20057;-50
2023/01/25 08:21:55;;;;;;;11.43;10.73;;;;;;;;;;5002083;28;20037;-51
2023/01/25 08:24:20;;;;;;;11.73;11.02;;;;;;;;;;4998598;28;20100;-54
2023/01/25 08:26:45;;;;;;;11.85;11.07;;;;;;;;;;4999670;28;20461;-52
2023/01/25 08:29:11;;;;;;;11.73;10.95;;;;;;;;;;5000823;28;20065;-53
2023/01/25 08:31:39;;;;;;;11.07;10.38;;;;;;;;;;4996784;28;20078;-53
2023/01/25 08:34:05;;;;;;;12.38;11.48;;;;;;;;;;4998480;28;20896;-49
2023/01/25 08:36:31;;;;;;;12.27;11.30;;;;;;;;;;4996882;28;20034;-51
2023/01/25 08:38:59;;;;;;;11.50;10.70;;;;;;;;;;4998426;28;20034;-52
2023/01/25 08:41:26;;;;;;;11.90;11.00;;;;;;;;;;4997940;28;20072;-52
2023/01/25 08:43:53;;;;;;;11.40;10.70;;;;;;;;;;4996573;28;20519;-54
2023/01/25 08:46:19;;;;;;;12.70;11.80;;;;;;;;;;5001579;28;20467;-54
2023/01/25 08:48:45;;;;;;;10.60;9.90;;;;;;;;;;4999029;28;20128;-54
2023/01/25 08:51:12;;;;;;;13.88;12.70;;;;;;;;;;5000973;28;20037;-53
2023/01/25 08:53:37;;;;;;;11.20;10.40;;;;;;;;;;5000553;28;20037;-52
2023/01/25 08:56:04;;;;;;;12.18;11.38;;;;;;;;;;4999228;28;20799;-52
2023/01/25 08:58:30;;;;;;;12.38;11.57;;;;;;;;;;4997480;28;20384;-54
2023/01/25 09:01:02;;;;;;;11.52;10.82;;;;;;;;;;4998084;28;20025;-51
2023/01/25 09:03:27;;;;;;;12.63;11.73;;;;;;;;;;4998939;28;20041;-53
2023/01/25 09:05:53;;;;;;;11.73;10.98;;;;;;;;;;4996533;28;20356;-53
2023/01/25 09:08:19;;;;;;;11.90;11.10;;;;;;;;;;4993849;28;20580;-50
2023/01/25 09:10:44;;;;;;;12.43;11.65;;;;;;;;;;4995888;28;20037;-53
2023/01/25 09:13:10;;;;;;;11.60;10.80;;;;;;;;;;4998152;28;20150;-54
2023/01/25 09:15:36;;;;;;;12.25;11.45;;;;;;;;;;4998995;28;20041;-52
2023/01/25 09:18:01;;;;;;;11.75;10.95;;;;;;;;;;4997899;28;20544;-53
2023/01/25 09:20:26;;;;;;;13.02;12.13;;;;;;;;;;5012499;28;20034;-52
2023/01/25 09:22:53;;;;;;;10.88;10.18;;;;;;;;;;4997405;28;20030;-54
2023/01/25 09:25:19;;;;;;;11.35;10.65;;;;;;;;;;5000430;28;20057;-54
2023/01/25 09:27:48;;;;;;;12.18;11.38;;;;;;;;;;4996607;28;20738;-54
2023/01/25 09:30:13;;;;;;;11.63;10.82;;;;;;;;;;4995381;28;20034;-52
2023/01/25 09:32:39;;;;;;;12.10;11.23;;;;;;;;;;4996756;28;20097;-52
2023/01/25 09:35:04;;;;;;;11.25;10.30;;;;;;;;;;4997640;28;20040;-54
2023/01/25 09:37:30;;;;;;;11.00;10.30;;;;;;;;;;4996602;28;20128;-53
2023/01/25 09:39:55;;;;;;;11.70;10.90;;;;;;;;;;4996561;28;20026;-52
2023/01/25 09:42:55;;;;;;;11.82;11.02;;;;;;;;;;4996103;28;20603;-53
2023/01/25 09:45:20;;;;;;;11.57;10.68;;;;;;;;;;4999404;28;20407;-53
2023/01/25 09:48:03;;;;;;;10.65;9.95;;;;;;;;;;4997791;28;20027;-51
2023/01/25 09:50:34;;;;;;;12.15;11.23;;;;;;;;;;4994772;28;20046;-50
2023/01/25 09:53:18;;;;;;;12.80;11.95;;;;;;;;;;4995830;28;20058;-55
2023/01/25 09:55:49;;;;;;;11.18;10.48;;;;;;;;;;4995521;28;20026;-50
2023/01/25 09:58:23;;;;;;;11.90;11.10;;;;;;;;;;4996526;28;20038;-54
2023/01/25 10:00:58;;;;;;;10.98;10.27;;;;;;;;;;4997065;28;20032;-52
2023/01/25 10:03:31;;;;;;;11.98;11.07;;;;;;;;;;4995937;28;20084;-55
2023/01/25 10:05:58;;;;;;;11.85;11.05;;;;;;;;;;4995355;28;20387;-52
2023/01/25 10:08:45;;;;;;;12.95;12.02;;;;;;;;;;4997147;28;20132;-52
2023/01/25 10:11:22;;;;;;;12.13;11.40;;;;;;;;;;4997399;28;20070;-50
2023/01/25 10:13:47;;;;;;;11.73;10.98;;;;;;;;;;4995256;28;20333;-55
2023/01/25 10:16:22;;;;;;;11.52;10.52;;;;;;;;;;4994216;28;20511;-52
2023/01/25 10:18:47;;;;;;;11.15;10.45;;;;;;;;;;4995393;28;20069;-53
2023/01/25 10:21:37;;;;;;;11.60;10.80;;;;;;;;;;4996527;28;20116;-54
2023/01/25 10:24:40;;;;;;;11.25;10.55;;;;;;;;;;4999349;28;20034;-52
2023/01/25 10:27:21;;;;;;;11.75;10.93;;;;;;;;;;4995128;28;20428;-52
2023/01/25 10:29:48;;;;;;;12.60;11.60;;;;;;;;;;4995463;28;20092;-55
2023/01/25 10:32:19;;;;;;;12.50;11.60;;;;;;;;;;4999055;28;20110;-52
2023/01/25 10:34:49;;;;;;;11.32;10.32;;;;;;;;;;4996033;28;20483;-52
2023/01/25 10:37:21;;;;;;;11.93;11.18;;;;;;;;;;4996886;28;20109;-55
2023/01/25 10:40:23;;;;;;;11.57;10.77;;;;;;;;;;4996177;28;20030;-51
2023/01/25 10:42:58;;;;;;;11.90;11.15;;;;;;;;;;4994724;28;20518;-50
2023/01/25 10:45:24;;;;;;;11.27;10.57;;;;;;;;;;4994109;28;20037;-54
2023/01/25 10:47:54;;;;;;;12.60;11.70;;;;;;;;;;4997996;28;20658;-51
2023/01/25 10:50:40;;;;;;;11.45;10.65;;;;;;;;;;4996851;28;20029;-53
2023/01/25 10:53:23;;;;;;;11.20;10.50;;;;;;;;;;4994955;28;20053;-54
2023/01/25 10:55:56;;;;;;;10.90;10.20;;;;;;;;;;4998776;28;20046;-52
2023/01/25 10:58:35;;;;;;;13.07;12.07;;;;;;;;;;4995444;28;20034;-53
2023/01/25 11:01:03;;;;;;;11.80;11.00;;;;;;;;;;4994020;28;20364;-54
2023/01/25 11:03:55;;;;;;;13.15;12.27;;;;;;;;;;4993958;28;20034;-54
2023/01/25 11:06:37;;;;;;;12.02;11.13;;;;;;;;;;4993594;28;20050;-53
2023/01/25 11:09:31;;;;;;;12.05;11.13;;;;;;;;;;4996937;28;20052;-52
2023/01/25 11:11:58;;;;;;;13.10;12.30;;;;;;;;;;4993021;28;20128;-53
2023/01/25 11:14:26;;;;;;;12.00;11.20;;;;;;;;;;4996846;28;20568;-53
2023/01/25 11:16:51;;;;;;;11.90;11.13;;;;;;;;;;4992736;28;20117;-52
2023/01/25 11:19:38;;;;;;;12.38;11.43;;;;;;;;;;4998694;28;20571;-53
2023/01/25 11:22:22;;;;;;;11.57;10.77;;;;;;;;;;4995992;28;20093;-53
2023/01/25 11:24:48;;;;;;;12.85;11.40;;;;;;;;;;4996155;28;20041;-53
2023/01/25 11:27:20;;;;;;;12.52;11.73;;;;;;;;;;4993101;28;20026;-51
2023/01/25 11:30:05;;;;;;;15.95;14.52;;;;;;;;;;4994213;28;20776;-54
2023/01/25 11:32:31;;;;;;;18.15;16.63;;;;;;;;;;4994815;28;20069;-54
2023/01/25 11:34:57;;;;;;;42.05;36.42;;;;;;;;;;4992421;28;20426;-50
2023/01/25 11:37:31;;;;;;;13.10;12.20;;;;;;;;;;4994444;28;20045;-51
2023/01/25 11:40:11;;;;;;;13.10;12.20;;;;;;;;;;4994475;28;20089;-54
2023/01/25 11:42:58;;;;;;;17.58;16.13;;;;;;;;;;4994228;28;20468;-52
2023/01/25 11:45:27;;;;;;;34.70;31.02;;;;;;;;;;4992892;28;20046;-54
2023/01/25 11:47:58;;;;;;;28.20;22.33;;;;;;;;;;4998130;28;20555;-52
2023/01/25 11:50:26;;;;;;;14.95;13.82;;;;;;;;;;4993951;28;20134;-54
2023/01/25 11:53:12;;;;;;;19.67;17.83;;;;;;;;;;4995543;28;20052;-53
2023/01/25 11:55:46;;;;;;;12.43;11.52;;;;;;;;;;4994331;28;20079;-49
2023/01/25 11:58:31;;;;;;;15.63;14.35;;;;;;;;;;4994879;28;20033;-54
2023/01/25 12:01:22;;;;;;;13.93;12.90;;;;;;;;;;4992965;28;20034;-50
2023/01/25 12:04:06;;;;;;;;;;;;;;;;;;4991263;28;20037;-52
2023/01/25 12:06:41;;;;;;;12.35;11.45;;;;;;;;;;4994838;28;20373;-53
2023/01/25 12:09:31;;;;;;;11.88;11.07;;;;;;;;;;4994384;28;20034;-54
2023/01/25 12:12:02;;;;;;;13.37;12.50;;;;;;;;;;4995150;28;20041;-55
2023/01/25 12:14:37;;;;;;;12.30;11.52;;;;;;;;;;4991221;28;20607;-54
2023/01/25 12:17:35;;;;;;;12.63;11.73;;;;;;;;;;4995474;28;20041;-52
2023/01/25 12:20:09;;;;;;;13.75;12.77;;;;;;;;;;4995316;28;20037;-54
2023/01/25 12:22:55;;;;;;;12.57;11.63;;;;;;;;;;4992352;28;20578;-54
2023/01/25 12:25:38;;;;;;;12.25;11.45;;;;;;;;;;4994023;28;20056;-53
2023/01/25 12:28:19;;;;;;;10.93;10.23;;;;;;;;;;4995916;28;20783;-52
2023/01/25 12:31:15;;;;;;;13.88;12.88;;;;;;;;;;4993477;28;20050;-54
2023/01/25 12:33:59;;;;;;;15.20;14.05;;;;;;;;;;4989989;28;20045;-50
2023/01/25 12:36:30;;;;;;;14.02;12.82;;;;;;;;;;5000545;28;20561;-54
2023/01/25 12:39:11;;;;;;;12.35;11.55;;;;;;;;;;4994850;28;20476;-53
2023/01/25 12:42:05;;;;;;;12.18;11.40;;;;;;;;;;4994808;28;20061;-52
2023/01/25 12:44:48;;;;;;;13.07;11.82;;;;;;;;;;4998173;28;20030;-53
2023/01/25 12:47:19;;;;;;;11.30;10.57;;;;;;;;;;4995718;28;20121;-50
2023/01/25 12:49:54;;;;;;;10.63;9.98;;;;;;;;;;4996248;28;20034;-53
2023/01/25 12:52:34;;;;;;;11.45;10.65;;;;;;;;;;4993878;28;20025;-54
2023/01/25 12:55:03;;;;;;;11.60;10.73;;;;;;;;;;4995102;28;20045;-49
2023/01/25 12:57:35;;;;;;;12.73;11.93;;;;;;;;;;4993431;28;20054;-50
2023/01/25 13:00:17;;;;;;;13.38;12.38;;;;;;;;;;4993686;28;20125;-53
2023/01/25 13:03:07;;;;;;;13.55;12.32;;;;;;;;;;4992435;28;20097;-52
2023/01/25 13:05:44;;;;;;;12.98;12.00;;;;;;;;;;4996354;28;20081;-53
2023/01/25 13:08:34;;;;;;;11.32;10.52;;;;;;;;;;4999414;28;20034;-51
2023/01/25 13:11:10;;;;;;;10.90;10.20;;;;;;;;;;4995691;28;20034;-50
2023/01/25 13:13:36;;;;;;;12.10;11.20;;;;;;;;;;4999991;28;20683;-54
2023/01/25 13:16:29;;;;;;;12.77;11.85;;;;;;;;;;4996790;28;20041;-51
2023/01/25 13:18:55;;;;;;;11.98;11.18;;;;;;;;;;4999188;28;20034;-52
2023/01/25 13:21:36;;;;;;;11.65;10.77;;;;;;;;;;4995777;28;20045;-50
2023/01/25 13:24:18;;;;;;;11.57;10.77;;;;;;;;;;4997468;28;20033;-54
2023/01/25 13:26:47;;;;;;;13.20;12.35;;;;;;;;;;4997722;28;20042;-51
2023/01/25 13:29:31;;;;;;;12.50;11.50;;;;;;;;;;5003823;28;20065;-52
2023/01/25 13:31:57;;;;;;;12.10;11.38;;;;;;;;;;4996922;28;20491;-52
2023/01/25 13:34:36;;;;;;;12.05;11.25;;;;;;;;;;4996086;28;20474;-49
2023/01/25 13:37:25;;;;;;;12.13;11.32;;;;;;;;;;4997015;28;20073;-49
2023/01/25 13:39:59;;;;;;;11.63;10.75;;;;;;;;;;4994460;28;20029;-50
2023/01/25 13:42:28;;;;;;;11.88;11.07;;;;;;;;;;4998389;28;20073;-49
2023/01/25 13:45:23;;;;;;;11.77;10.93;;;;;;;;;;4998508;28;20459;-50
2023/01/25 13:48:01;;;;;;;12.32;11.52;;;;;;;;;;4996648;28;20123;-49
2023/01/25 13:50:33;;;;;;;13.15;12.18;;;;;;;;;;4998179;28;20372;-49
2023/01/25 13:53:04;;;;;;;11.13;10.43;;;;;;;;;;4996249;28;20117;-48
2023/01/25 13:55:52;;;;;;;12.13;11.30;;;;;;;;;;4995934;28;20034;-48
2023/01/25 13:58:26;;;;;;;15.43;11.35;;;;;;;;;;4997886;28;20121;-49
2023/01/25 14:00:56;;;;;;;14.10;12.75;;;;;;;;;;4997635;28;20049;-52
2023/01/25 14:03:32;;;;;;;10.55;9.85;;;;;;;;;;4997703;28;20038;-49
2023/01/25 14:06:01;;;;;;;11.40;10.60;;;;;;;;;;4999166;28;20120;-49
2023/01/25 14:08:28;;;;;;;11.27;10.48;;;;;;;;;;4996904;28;20050;-49
2023/01/25 14:10:54;;;;;;;12.57;11.68;;;;;;;;;;4993439;28;20062;-49
2023/01/25 14:13:19;;;;;;;11.00;10.30;;;;;;;;;;4994904;28;20034;-51
2023/01/25 14:15:57;;;;;;;12.10;11.30;;;;;;;;;;4996050;28;20059;-51
2023/01/25 14:18:33;;;;;;;12.05;11.15;;;;;;;;;;4998088;28;20042;-50
2023/01/25 14:21:19;;;;;;;11.73;11.00;;;;;;;;;;4995915;28;20030;-52
2023/01/25 14:23:44;;;;;;;12.05;11.15;;;;;;;;;;4998378;28;20030;-50
2023/01/25 14:26:17;;;;;;;11.77;11.07;;;;;;;;;;4998189;28;20038;-51
2023/01/25 14:28:49;;;;;;;12.05;11.18;;;;;;;;;;4996968;28;20038;-51
2023/01/25 14:31:21;;;;;;;11.40;10.70;;;;;;;;;;4992984;28;20053;-50
2023/01/25 14:33:53;;;;;;;10.98;10.20;;;;;;;;;;4996137;28;20073;-49
2023/01/25 14:36:20;;;;;;;11.50;10.70;;;;;;;;;;4995061;28;20133;-53
2023/01/25 14:38:45;;;;;;;11.45;10.65;;;;;;;;;;4993677;28;20042;-53